Lauren C — MTNU5 — position and weather

sailwx.info

Track history (hours):
 
Tides and Currents Weather Stations Pressure Air Temp Water Temp Dewpoint Dewpoint Depression Visibility Wind Speed Wind Dir Waves Ship Positions

Lauren C

Last reported at 2018-Jun-25 07:14 UTC. Time now 2018-Jun-25 11:36 UTC.
Position N 52°33' W 009°46'.

Length 90 m; draft 6.4 m.

Type: Cargo ship. MMSI: 235056239.

Date/timePositionNaut miles runAvg speedWind from/ knotsBaromVisibWave heightAir tempDewpointWater temp
2018-Jun-25 07:14N 52°33' W 009°46'410.0
2018-Jun-25 06:52N 52°31' W 009°51'410.9
2018-Jun-25 06:30N 52°29' W 009°57'811.4
2018-Jun-25 05:50N 52°24' W 010°07'410.7
2018-Jun-25 05:28N 52°22' W 010°12'510.6
2018-Jun-25 05:00N 52°19' W 010°18'510.3
2018-Jun-25 04:30N 52°16' W 010°25'5 9.4
2018-Jun-25 04:00N 52°13' W 010°31'5 9.8
2018-Jun-25 03:30N 52°10' W 010°37'5 9.8
2018-Jun-25 03:01N 52°07' W 010°44'5 9.1
2018-Jun-25 02:30N 52°03' W 010°47'611.0
2018-Jun-25 02:00N 51°57' W 010°44'510.8
2018-Jun-25 01:30N 51°52' W 010°42'610.7
2018-Jun-25 00:59N 51°47' W 010°39'610.7
2018-Jun-25 00:25N 51°41' W 010°37'610.6
2018-Jun-24 23:54N 51°36' W 010°34'410.3
2018-Jun-24 23:30N 51°33' W 010°29'1426.8
2018-Jun-24 22:59N 51°26' W 010°10'3 5.8
2018-Jun-24 22:28N 51°27' W 010°14'510.8
2018-Jun-24 22:00N 51°25' W 010°07'610.5
2018-Jun-24 21:23N 51°21' W 009°59'410.6
2018-Jun-24 20:59N 51°18' W 009°54'510.6
2018-Jun-24 20:29N 51°14' W 009°48'510.9
2018-Jun-24 20:00N 51°11' W 009°42'611.3
2018-Jun-24 19:30N 51°07' W 009°35'611.4
2018-Jun-24 18:59N 51°03' W 009°28'510.9
2018-Jun-24 18:30N 50°60' W 009°21'1110.9
2018-Jun-24 17:27N 50°53' W 009°06'510.5
2018-Jun-24 17:00N 50°51' W 009°00'610.3
2018-Jun-24 16:28N 50°47' W 008°53'510.2
2018-Jun-24 16:00N 50°45' W 008°47'510.2
2018-Jun-24 15:30N 50°42' W 008°41'510.2
2018-Jun-24 15:00N 50°38' W 008°34'510.3
2018-Jun-24 14:30N 50°35' W 008°28'510.2
2018-Jun-24 14:00N 50°32' W 008°22'510.2
2018-Jun-24 13:30N 50°28' W 008°16'510.4
2018-Jun-24 13:00N 50°25' W 008°10'510.5
2018-Jun-24 12:30N 50°22' W 008°03'510.7
2018-Jun-24 12:00N 50°18' W 007°57'510.7
2018-Jun-24 11:30N 50°14' W 007°51'510.8
2018-Jun-24 11:00N 50°11' W 007°45'610.9
2018-Jun-24 10:30N 50°07' W 007°38'710.8
2018-Jun-24 09:53N 50°03' W 007°30'511.9
2018-Jun-24 09:30N 50°00' W 007°25'612.0
2018-Jun-24 09:00N 49°57' W 007°17'612.0
2018-Jun-24 08:30N 49°53' W 007°10'612.0
2018-Jun-24 08:00N 49°49' W 007°02'612.0
2018-Jun-24 07:30N 49°47' W 006°54'612.0
2018-Jun-24 07:00N 49°45' W 006°45'611.9
2018-Jun-24 06:30N 49°44' W 006°36'612.0
2018-Jun-24 06:00N 49°44' W 006°27'10811.7
2018-Jun-23 20:45N 50°06' W 003°43'312.6
2018-Jun-23 20:30N 50°07' W 003°38'612.2
2018-Jun-23 20:00N 50°08' W 003°29'611.7
2018-Jun-23 19:30N 50°09' W 003°20'611.4
2018-Jun-23 19:00N 50°10' W 003°11'611.2
2018-Jun-23 18:30N 50°12' W 003°02'510.7
2018-Jun-23 18:00N 50°13' W 002°54'6910.8
2018-Jun-23 11:39N 50°25' W 001°09'213.1
2018-Jun-23 11:28N 50°25' W 001°05'613.4
2018-Jun-23 11:00N 50°26' W 000°55'713.6
2018-Jun-23 10:29N 50°27' W 000°44'613.3
2018-Jun-23 10:00N 50°28' W 000°34'3312.1
2018-Jun-23 07:15N 50°36' E 000°17'311.1
2018-Jun-23 07:00N 50°36' E 000°21'510.9
2018-Jun-23 06:30N 50°38' E 000°29'510.5
2018-Jun-23 06:00N 50°40' E 000°37'510.9
2018-Jun-23 05:30N 50°43' E 000°44'510.8
2018-Jun-23 05:00N 50°46' E 000°51'611.1
2018-Jun-23 04:30N 50°49' E 000°58'611.6
2018-Jun-23 04:00N 50°53' E 001°05'612.3
2018-Jun-23 03:30N 50°57' E 001°12'612.8
2018-Jun-23 03:00N 51°01' E 001°20'713.3
2018-Jun-23 02:30N 51°05' E 001°29'713.4
2018-Jun-23 02:00N 51°09' E 001°37'612.6
2018-Jun-23 01:30N 51°13' E 001°44'612.1
2018-Jun-23 01:00N 51°19' E 001°49'611.4
2018-Jun-23 00:30N 51°24' E 001°53'611.0
2018-Jun-23 00:00N 51°28' E 001°59'910.6
2018-Jun-22 23:07N 51°35' E 002°09'310.4
2018-Jun-22 22:48N 51°38' E 002°13'310.2
2018-Jun-22 22:30N 51°40' E 002°16'510.0
2018-Jun-22 22:00N 51°44' E 002°21'86 9.7
2018-Jun-22 13:10N 52°30' E 004°19'1 8.4
2018-Jun-22 13:00N 52°30' E 004°21'4 8.3
2018-Jun-22 12:30N 52°29' E 004°28'4 7.9
2018-Jun-22 12:00N 52°28' E 004°34'1 2.3
2018-Jun-22 11:30N 52°28' E 004°36'1 2.4
2018-Jun-22 11:00N 52°28' E 004°38'3 7.0
2018-Jun-22 10:30N 52°26' E 004°43'3 5.6
2018-Jun-22 10:00N 52°24' E 004°47'0 0.5
2018-Jun-22 09:29N 52°24' E 004°47'0 0.0
2018-Jun-22 08:59N 52°24' E 004°47'0 0.0
2018-Jun-22 08:14N 52°24' E 004°47'0 0.0
2018-Jun-22 07:41N 52°24' E 004°47'0 0.0
2018-Jun-22 07:29N 52°24' E 004°47'0 0.0
2018-Jun-22 06:53N 52°24' E 004°47'0 0.0
2018-Jun-22 06:23N 52°24' E 004°47'0 0.0
2018-Jun-22 05:56N 52°24' E 004°47'0 0.0
2018-Jun-22 05:26N 52°24' E 004°47'0 0.0
2018-Jun-22 04:50N 52°24' E 004°47'0 0.0
2018-Jun-22 04:23N 52°24' E 004°47'0 0.0
2018-Jun-22 03:53N 52°24' E 004°47'0 0.0
2018-Jun-22 03:05N 52°24' E 004°47'0 0.0
2018-Jun-22 02:47N 52°24' E 004°47'0 0.0
2018-Jun-22 02:29N 52°24' E 004°47'0 0.0
2018-Jun-22 01:59N 52°24' E 004°47'0 0.0
2018-Jun-22 01:29N 52°24' E 004°47'0 0.0
2018-Jun-22 00:56N 52°24' E 004°47'0 0.0
2018-Jun-22 00:20N 52°24' E 004°47'0 0.0
2018-Jun-21 23:56N 52°24' E 004°47'0 0.0
2018-Jun-21 23:23N 52°24' E 004°47'0 0.0
2018-Jun-21 22:47N 52°24' E 004°47'0 0.0
2018-Jun-21 22:14N 52°24' E 004°47'0 0.0
2018-Jun-21 21:56N 52°24' E 004°47'0 0.0
2018-Jun-21 21:26N 52°24' E 004°47'0 0.0
2018-Jun-21 20:50N 52°24' E 004°47'0 0.0
2018-Jun-21 20:29N 52°24' E 004°47'0 0.0
2018-Jun-21 19:50N 52°24' E 004°47'0 0.0
2018-Jun-21 19:20N 52°24' E 004°47'0 0.0
2018-Jun-21 18:59N 52°24' E 004°47'0 0.0
2018-Jun-21 18:26N 52°24' E 004°47'0 0.0
2018-Jun-21 17:56N 52°24' E 004°47'0 0.0
2018-Jun-21 17:29N 52°24' E 004°47'0 0.0
2018-Jun-21 16:59N 52°24' E 004°47'0 0.0
2018-Jun-21 16:23N 52°24' E 004°47'0 0.0
2018-Jun-21 15:59N 52°24' E 004°47'0 0.0
2018-Jun-21 15:29N 52°24' E 004°47'0 0.0
2018-Jun-21 14:59N 52°24' E 004°47'0 0.0
2018-Jun-21 12:05N 52°24' E 004°47'0 0.0
2018-Jun-21 11:53N 52°24' E 004°47'0 0.1
2018-Jun-21 11:29N 52°24' E 004°47'0 0.0
2018-Jun-21 10:59N 52°24' E 004°47'0 0.0
2018-Jun-21 10:29N 52°24' E 004°47'0 0.0
2018-Jun-21 09:53N 52°24' E 004°47'0 0.0
2018-Jun-21 09:29N 52°24' E 004°47'0 0.0
2018-Jun-21 08:50N 52°24' E 004°47'0 0.0
2018-Jun-21 08:29N 52°24' E 004°47'0 0.0
2018-Jun-21 07:59N 52°24' E 004°47'0 0.0
2018-Jun-21 07:29N 52°24' E 004°47'0 0.0
2018-Jun-21 06:56N 52°24' E 004°47'0 0.0
2018-Jun-21 06:29N 52°24' E 004°47'0 0.0
2018-Jun-21 05:59N 52°24' E 004°47'0 0.0
2018-Jun-21 05:29N 52°24' E 004°47'0 0.0
2018-Jun-21 04:59N 52°24' E 004°47'0 0.0
2018-Jun-21 04:29N 52°24' E 004°47'0 0.0
2018-Jun-21 03:59N 52°24' E 004°47'0 0.0
2018-Jun-21 03:26N 52°24' E 004°47'0 0.0
2018-Jun-21 02:59N 52°24' E 004°47'0 0.0
2018-Jun-21 02:26N 52°24' E 004°47'0 0.0
2018-Jun-21 01:59N 52°24' E 004°47'0 0.0
2018-Jun-21 01:29N 52°24' E 004°47'0 0.0
2018-Jun-21 00:59N 52°24' E 004°47'0 0.0
2018-Jun-21 00:29N 52°24' E 004°47'0 0.0
2018-Jun-20 23:59N 52°24' E 004°47'0 0.0
2018-Jun-20 23:29N 52°24' E 004°47'0 0.0
2018-Jun-20 22:59N 52°24' E 004°47'0 0.0
2018-Jun-20 22:29N 52°24' E 004°47'0 0.0
2018-Jun-20 21:59N 52°24' E 004°47'0 0.0
2018-Jun-20 21:29N 52°24' E 004°47'0 0.0
2018-Jun-20 20:59N 52°24' E 004°47'0 0.0
2018-Jun-20 20:29N 52°24' E 004°47'0 0.0
2018-Jun-20 19:59N 52°24' E 004°47'0 0.0
2018-Jun-20 19:26N 52°24' E 004°47'0 0.0
2018-Jun-20 18:56N 52°24' E 004°47'0 0.0
2018-Jun-20 18:29N 52°24' E 004°47'0 0.0
2018-Jun-20 17:59N 52°24' E 004°47'0 0.0
2018-Jun-20 17:29N 52°24' E 004°47'0 0.0
2018-Jun-20 16:59N 52°24' E 004°47'0 0.0
2018-Jun-20 16:26N 52°24' E 004°47'0 0.0
2018-Jun-20 15:59N 52°24' E 004°47'0 0.0
2018-Jun-20 15:29N 52°24' E 004°47'0 0.0
2018-Jun-20 14:59N 52°24' E 004°47'0 0.0
2018-Jun-20 14:29N 52°24' E 004°47'0 0.0
2018-Jun-20 13:59N 52°24' E 004°47'0 0.0
2018-Jun-20 13:26N 52°24' E 004°47'0 0.0
2018-Jun-20 12:59N 52°24' E 004°47'0 0.0
2018-Jun-20 12:29N 52°24' E 004°47'0 0.0
2018-Jun-20 11:53N 52°24' E 004°47'0 0.0
2018-Jun-20 11:29N 52°24' E 004°47'0 0.0
2018-Jun-20 10:59N 52°24' E 004°47'0 0.1
2018-Jun-20 10:30N 52°24' E 004°47'1 2.8
2018-Jun-20 10:00N 52°25' E 004°46'4 8.9
2018-Jun-20 09:30N 52°28' E 004°40'2 4.1
2018-Jun-20 09:00N 52°28' E 004°36'1 1.6
2018-Jun-20 08:30N 52°28' E 004°35'5 9.3
2018-Jun-20 08:00N 52°28' E 004°28'4 7.0
2018-Jun-20 07:30N 52°28' E 004°22'4 7.3
2018-Jun-20 07:00N 52°29' E 004°16'4 7.4
2018-Jun-20 06:30N 52°29' E 004°10'4 8.4
2018-Jun-20 06:00N 52°28' E 004°03'610.9
2018-Jun-20 05:30N 52°27' E 003°54'510.5
2018-Jun-20 05:00N 52°26' E 003°46'15810.1
2018-Jun-19 13:26N 53°38' W 000°08'614.6
2018-Jun-19 13:00N 53°43' W 000°14'2 4.6
2018-Jun-19 12:31N 53°44' W 000°16'0 0.5
2018-Jun-19 11:58N 53°45' W 000°16'0 0.2
2018-Jun-19 11:28N 53°45' W 000°16'0 0.0
2018-Jun-19 10:58N 53°45' W 000°16'0 0.0
2018-Jun-19 10:28N 53°45' W 000°16'0 0.0
2018-Jun-19 09:58N 53°45' W 000°16'0 0.0
2018-Jun-19 09:28N 53°45' W 000°16'0 0.0
2018-Jun-19 08:58N 53°45' W 000°16'0 0.0
2018-Jun-19 08:28N 53°45' W 000°16'0 0.0
2018-Jun-19 07:58N 53°45' W 000°16'0 0.0
2018-Jun-19 07:28N 53°45' W 000°16'0 0.0
2018-Jun-19 06:58N 53°45' W 000°16'0 0.0
2018-Jun-19 06:28N 53°45' W 000°16'0 0.0
2018-Jun-19 05:58N 53°45' W 000°16'0 0.0
2018-Jun-19 05:28N 53°45' W 000°16'0 0.0
2018-Jun-19 04:58N 53°45' W 000°16'0 0.0
2018-Jun-19 04:22N 53°45' W 000°16'0 0.0
2018-Jun-19 03:58N 53°45' W 000°16'0 0.0
2018-Jun-19 03:28N 53°45' W 000°16'0 0.0
2018-Jun-19 02:58N 53°45' W 000°16'0 0.0
2018-Jun-19 02:28N 53°45' W 000°16'0 0.0
2018-Jun-19 01:58N 53°45' W 000°16'0 0.0
2018-Jun-19 01:28N 53°45' W 000°16'0 0.0
2018-Jun-19 00:58N 53°45' W 000°16'0 0.0
2018-Jun-19 00:28N 53°45' W 000°16'0 0.0
2018-Jun-18 23:58N 53°45' W 000°16'0 0.0
2018-Jun-18 23:28N 53°45' W 000°16'0 0.0
2018-Jun-18 22:58N 53°45' W 000°16'0 0.0
2018-Jun-18 22:28N 53°45' W 000°16'0 0.0
2018-Jun-18 21:58N 53°45' W 000°16'0 0.0
2018-Jun-18 21:28N 53°45' W 000°16'0 0.0
2018-Jun-18 20:58N 53°45' W 000°16'0 0.0
2018-Jun-18 20:28N 53°45' W 000°16'0 0.0
2018-Jun-18 19:58N 53°45' W 000°16'0 0.0
2018-Jun-18 19:28N 53°45' W 000°16'0 0.0
2018-Jun-18 18:58N 53°45' W 000°16'0 0.0
2018-Jun-18 18:28N 53°45' W 000°16'0 0.0
2018-Jun-18 17:58N 53°45' W 000°16'0 0.0
2018-Jun-18 17:28N 53°45' W 000°16'0 0.0
2018-Jun-18 16:58N 53°45' W 000°16'0 0.0
2018-Jun-18 16:28N 53°45' W 000°16'0 0.0
2018-Jun-18 15:58N 53°45' W 000°16'0 0.0
2018-Jun-18 15:28N 53°45' W 000°16'0 0.0
2018-Jun-18 14:58N 53°45' W 000°16'0 0.0
2018-Jun-18 14:28N 53°45' W 000°16'0 0.0
2018-Jun-18 13:58N 53°45' W 000°16'0 0.0
2018-Jun-18 13:28N 53°45' W 000°16'0 0.0
2018-Jun-18 12:55N 53°45' W 000°16'0 0.0
2018-Jun-18 12:28N 53°45' W 000°16'0 0.0
2018-Jun-18 11:58N 53°45' W 000°16'0 0.0
2018-Jun-18 11:25N 53°45' W 000°16'0 0.0
2018-Jun-18 10:58N 53°45' W 000°16'0 0.0
2018-Jun-18 10:28N 53°45' W 000°16'0 0.0
2018-Jun-18 09:58N 53°45' W 000°16'0 0.0
2018-Jun-18 09:28N 53°45' W 000°16'0 0.0
2018-Jun-18 08:58N 53°45' W 000°16'0 0.0
2018-Jun-18 08:28N 53°45' W 000°16'0 0.0
2018-Jun-18 07:58N 53°45' W 000°16'0 0.0
2018-Jun-18 07:28N 53°45' W 000°16'0 0.0
2018-Jun-18 06:58N 53°45' W 000°16'0 0.0
2018-Jun-18 06:28N 53°45' W 000°16'0 0.0
2018-Jun-18 05:58N 53°45' W 000°16'0 0.0
2018-Jun-18 05:28N 53°45' W 000°16'0 0.0
2018-Jun-18 04:58N 53°45' W 000°16'0 0.0
2018-Jun-18 04:28N 53°45' W 000°16'0 0.0
2018-Jun-18 03:58N 53°45' W 000°16'0 0.0
2018-Jun-18 03:28N 53°45' W 000°16'0 0.0
2018-Jun-18 02:58N 53°45' W 000°16'0 0.0
2018-Jun-18 02:28N 53°45' W 000°16'0 0.0
2018-Jun-18 01:58N 53°45' W 000°16'0 0.0
2018-Jun-18 01:28N 53°45' W 000°16'0 0.0
2018-Jun-18 00:58N 53°45' W 000°16'0 0.0
2018-Jun-18 00:28N 53°45' W 000°16'0 0.0
2018-Jun-17 23:58N 53°45' W 000°16'0 0.0
2018-Jun-17 23:31N 53°45' W 000°16'0 0.6
2018-Jun-17 23:00N 53°45' W 000°16'0 0.2
2018-Jun-17 22:30N 53°44' W 000°16'0 0.7
2018-Jun-17 22:00N 53°44' W 000°16'2 4.4
2018-Jun-17 21:30N 53°42' W 000°14'4 7.0
2018-Jun-17 20:59N 53°39' W 000°11'59 6.4
2018-Jun-17 11:43N 53°05' E 001°10'210.0
2018-Jun-17 11:30N 53°04' E 001°13'5 9.6
2018-Jun-17 11:00N 53°02' E 001°20'5 9.2
2018-Jun-17 10:30N 52°59' E 001°26'4 8.6
2018-Jun-17 10:00N 52°56' E 001°32'4 8.5
2018-Jun-17 09:30N 52°53' E 001°37'4 8.5
2018-Jun-17 09:00N 52°50' E 001°42'4 8.6
2018-Jun-17 08:30N 52°47' E 001°47'3610.8
2018-Jun-17 05:08N 52°11' E 001°54'213.6
2018-Jun-17 05:00N 52°10' E 001°54'713.9
2018-Jun-17 04:31N 52°03' E 001°52'713.9
2018-Jun-17 04:00N 51°56' E 001°49'612.9
2018-Jun-17 03:30N 51°50' E 001°49'712.5
2018-Jun-17 02:57N 51°43' E 001°50'512.1
2018-Jun-17 02:30N 51°38' E 001°49'612.5
2018-Jun-17 02:00N 51°32' E 001°47'612.7
2018-Jun-17 01:30N 51°25' E 001°45'612.7
2018-Jun-17 01:00N 51°19' E 001°43'612.2
2018-Jun-17 00:30N 51°13' E 001°39'5 9.5
2018-Jun-17 00:00N 51°09' E 001°42'18311.1
2018-Jun-16 07:37N 49°52' W 002°38'  
Track history (hours):
 
Tides and Currents Weather Stations Pressure Air Temp Water Temp Dewpoint Dewpoint Depression Visibility Wind Speed Wind Dir Waves Ship Positions

Lauren C

Last reported at 2018-Jun-25 07:14 UTC. Time now 2018-Jun-25 11:36 UTC.
Position N 52°33' W 009°46'.

Length 90 m; draft 6.4 m.

Type: Cargo ship. MMSI: 235056239.

Date/timePositionNaut miles runAvg speedWind from/ knotsBaromVisibWave heightAir tempDewpointWater temp
2018-Jun-25 07:14N 52°33' W 009°46'410.0
2018-Jun-25 06:52N 52°31' W 009°51'410.9
2018-Jun-25 06:30N 52°29' W 009°57'811.4
2018-Jun-25 05:50N 52°24' W 010°07'410.7
2018-Jun-25 05:28N 52°22' W 010°12'510.6
2018-Jun-25 05:00N 52°19' W 010°18'510.3
2018-Jun-25 04:30N 52°16' W 010°25'5 9.4
2018-Jun-25 04:00N 52°13' W 010°31'5 9.8
2018-Jun-25 03:30N 52°10' W 010°37'5 9.8
2018-Jun-25 03:01N 52°07' W 010°44'5 9.1
2018-Jun-25 02:30N 52°03' W 010°47'611.0
2018-Jun-25 02:00N 51°57' W 010°44'510.8
2018-Jun-25 01:30N 51°52' W 010°42'610.7
2018-Jun-25 00:59N 51°47' W 010°39'610.7
2018-Jun-25 00:25N 51°41' W 010°37'610.6
2018-Jun-24 23:54N 51°36' W 010°34'410.3
2018-Jun-24 23:30N 51°33' W 010°29'1426.8
2018-Jun-24 22:59N 51°26' W 010°10'3 5.8
2018-Jun-24 22:28N 51°27' W 010°14'510.8
2018-Jun-24 22:00N 51°25' W 010°07'610.5
2018-Jun-24 21:23N 51°21' W 009°59'410.6
2018-Jun-24 20:59N 51°18' W 009°54'510.6
2018-Jun-24 20:29N 51°14' W 009°48'510.9
2018-Jun-24 20:00N 51°11' W 009°42'611.3
2018-Jun-24 19:30N 51°07' W 009°35'611.4
2018-Jun-24 18:59N 51°03' W 009°28'510.9
2018-Jun-24 18:30N 50°60' W 009°21'1110.9
2018-Jun-24 17:27N 50°53' W 009°06'510.5
2018-Jun-24 17:00N 50°51' W 009°00'610.3
2018-Jun-24 16:28N 50°47' W 008°53'510.2
2018-Jun-24 16:00N 50°45' W 008°47'510.2
2018-Jun-24 15:30N 50°42' W 008°41'510.2
2018-Jun-24 15:00N 50°38' W 008°34'510.3
2018-Jun-24 14:30N 50°35' W 008°28'510.2
2018-Jun-24 14:00N 50°32' W 008°22'510.2
2018-Jun-24 13:30N 50°28' W 008°16'510.4
2018-Jun-24 13:00N 50°25' W 008°10'510.5
2018-Jun-24 12:30N 50°22' W 008°03'510.7
2018-Jun-24 12:00N 50°18' W 007°57'510.7
2018-Jun-24 11:30N 50°14' W 007°51'510.8
2018-Jun-24 11:00N 50°11' W 007°45'610.9
2018-Jun-24 10:30N 50°07' W 007°38'710.8
2018-Jun-24 09:53N 50°03' W 007°30'511.9
2018-Jun-24 09:30N 50°00' W 007°25'612.0
2018-Jun-24 09:00N 49°57' W 007°17'612.0
2018-Jun-24 08:30N 49°53' W 007°10'612.0
2018-Jun-24 08:00N 49°49' W 007°02'612.0
2018-Jun-24 07:30N 49°47' W 006°54'612.0
2018-Jun-24 07:00N 49°45' W 006°45'611.9
2018-Jun-24 06:30N 49°44' W 006°36'612.0
2018-Jun-24 06:00N 49°44' W 006°27'10811.7
2018-Jun-23 20:45N 50°06' W 003°43'312.6
2018-Jun-23 20:30N 50°07' W 003°38'612.2
2018-Jun-23 20:00N 50°08' W 003°29'611.7
2018-Jun-23 19:30N 50°09' W 003°20'611.4
2018-Jun-23 19:00N 50°10' W 003°11'611.2
2018-Jun-23 18:30N 50°12' W 003°02'510.7
2018-Jun-23 18:00N 50°13' W 002°54'6910.8
2018-Jun-23 11:39N 50°25' W 001°09'213.1
2018-Jun-23 11:28N 50°25' W 001°05'613.4
2018-Jun-23 11:00N 50°26' W 000°55'713.6
2018-Jun-23 10:29N 50°27' W 000°44'613.3
2018-Jun-23 10:00N 50°28' W 000°34'3312.1
2018-Jun-23 07:15N 50°36' E 000°17'311.1
2018-Jun-23 07:00N 50°36' E 000°21'510.9
2018-Jun-23 06:30N 50°38' E 000°29'510.5
2018-Jun-23 06:00N 50°40' E 000°37'510.9
2018-Jun-23 05:30N 50°43' E 000°44'510.8
2018-Jun-23 05:00N 50°46' E 000°51'611.1
2018-Jun-23 04:30N 50°49' E 000°58'611.6
2018-Jun-23 04:00N 50°53' E 001°05'612.3
2018-Jun-23 03:30N 50°57' E 001°12'612.8
2018-Jun-23 03:00N 51°01' E 001°20'713.3
2018-Jun-23 02:30N 51°05' E 001°29'713.4
2018-Jun-23 02:00N 51°09' E 001°37'612.6
2018-Jun-23 01:30N 51°13' E 001°44'612.1
2018-Jun-23 01:00N 51°19' E 001°49'611.4
2018-Jun-23 00:30N 51°24' E 001°53'611.0
2018-Jun-23 00:00N 51°28' E 001°59'910.6
2018-Jun-22 23:07N 51°35' E 002°09'310.4
2018-Jun-22 22:48N 51°38' E 002°13'310.2
2018-Jun-22 22:30N 51°40' E 002°16'510.0
2018-Jun-22 22:00N 51°44' E 002°21'86 9.7
2018-Jun-22 13:10N 52°30' E 004°19'1 8.4
2018-Jun-22 13:00N 52°30' E 004°21'4 8.3
2018-Jun-22 12:30N 52°29' E 004°28'4 7.9
2018-Jun-22 12:00N 52°28' E 004°34'1 2.3
2018-Jun-22 11:30N 52°28' E 004°36'1 2.4
2018-Jun-22 11:00N 52°28' E 004°38'3 7.0
2018-Jun-22 10:30N 52°26' E 004°43'3 5.6
2018-Jun-22 10:00N 52°24' E 004°47'0 0.5
2018-Jun-22 09:29N 52°24' E 004°47'0 0.0
2018-Jun-22 08:59N 52°24' E 004°47'0 0.0
2018-Jun-22 08:14N 52°24' E 004°47'0 0.0
2018-Jun-22 07:41N 52°24' E 004°47'0 0.0
2018-Jun-22 07:29N 52°24' E 004°47'0 0.0
2018-Jun-22 06:53N 52°24' E 004°47'0 0.0
2018-Jun-22 06:23N 52°24' E 004°47'0 0.0
2018-Jun-22 05:56N 52°24' E 004°47'0 0.0
2018-Jun-22 05:26N 52°24' E 004°47'0 0.0
2018-Jun-22 04:50N 52°24' E 004°47'0 0.0
2018-Jun-22 04:23N 52°24' E 004°47'0 0.0
2018-Jun-22 03:53N 52°24' E 004°47'0 0.0
2018-Jun-22 03:05N 52°24' E 004°47'0 0.0
2018-Jun-22 02:47N 52°24' E 004°47'0 0.0
2018-Jun-22 02:29N 52°24' E 004°47'0 0.0
2018-Jun-22 01:59N 52°24' E 004°47'0 0.0
2018-Jun-22 01:29N 52°24' E 004°47'0 0.0
2018-Jun-22 00:56N 52°24' E 004°47'0 0.0
2018-Jun-22 00:20N 52°24' E 004°47'0 0.0
2018-Jun-21 23:56N 52°24' E 004°47'0 0.0
2018-Jun-21 23:23N 52°24' E 004°47'0 0.0
2018-Jun-21 22:47N 52°24' E 004°47'0 0.0
2018-Jun-21 22:14N 52°24' E 004°47'0 0.0
2018-Jun-21 21:56N 52°24' E 004°47'0 0.0
2018-Jun-21 21:26N 52°24' E 004°47'0 0.0
2018-Jun-21 20:50N 52°24' E 004°47'0 0.0
2018-Jun-21 20:29N 52°24' E 004°47'0 0.0
2018-Jun-21 19:50N 52°24' E 004°47'0 0.0
2018-Jun-21 19:20N 52°24' E 004°47'0 0.0
2018-Jun-21 18:59N 52°24' E 004°47'0 0.0
2018-Jun-21 18:26N 52°24' E 004°47'0 0.0
2018-Jun-21 17:56N 52°24' E 004°47'0 0.0
2018-Jun-21 17:29N 52°24' E 004°47'0 0.0
2018-Jun-21 16:59N 52°24' E 004°47'0 0.0
2018-Jun-21 16:23N 52°24' E 004°47'0 0.0
2018-Jun-21 15:59N 52°24' E 004°47'0 0.0
2018-Jun-21 15:29N 52°24' E 004°47'0 0.0
2018-Jun-21 14:59N 52°24' E 004°47'0 0.0
2018-Jun-21 12:05N 52°24' E 004°47'0 0.0
2018-Jun-21 11:53N 52°24' E 004°47'0 0.1
2018-Jun-21 11:29N 52°24' E 004°47'0 0.0
2018-Jun-21 10:59N 52°24' E 004°47'0 0.0
2018-Jun-21 10:29N 52°24' E 004°47'0 0.0
2018-Jun-21 09:53N 52°24' E 004°47'0 0.0
2018-Jun-21 09:29N 52°24' E 004°47'0 0.0
2018-Jun-21 08:50N 52°24' E 004°47'0 0.0
2018-Jun-21 08:29N 52°24' E 004°47'0 0.0
2018-Jun-21 07:59N 52°24' E 004°47'0 0.0
2018-Jun-21 07:29N 52°24' E 004°47'0 0.0
2018-Jun-21 06:56N 52°24' E 004°47'0 0.0
2018-Jun-21 06:29N 52°24' E 004°47'0 0.0
2018-Jun-21 05:59N 52°24' E 004°47'0 0.0
2018-Jun-21 05:29N 52°24' E 004°47'0 0.0
2018-Jun-21 04:59N 52°24' E 004°47'0 0.0
2018-Jun-21 04:29N 52°24' E 004°47'0 0.0
2018-Jun-21 03:59N 52°24' E 004°47'0 0.0
2018-Jun-21 03:26N 52°24' E 004°47'0 0.0
2018-Jun-21 02:59N 52°24' E 004°47'0 0.0
2018-Jun-21 02:26N 52°24' E 004°47'0 0.0
2018-Jun-21 01:59N 52°24' E 004°47'0 0.0
2018-Jun-21 01:29N 52°24' E 004°47'0 0.0
2018-Jun-21 00:59N 52°24' E 004°47'0 0.0
2018-Jun-21 00:29N 52°24' E 004°47'0 0.0
2018-Jun-20 23:59N 52°24' E 004°47'0 0.0
2018-Jun-20 23:29N 52°24' E 004°47'0 0.0
2018-Jun-20 22:59N 52°24' E 004°47'0 0.0
2018-Jun-20 22:29N 52°24' E 004°47'0 0.0
2018-Jun-20 21:59N 52°24' E 004°47'0 0.0
2018-Jun-20 21:29N 52°24' E 004°47'0 0.0
2018-Jun-20 20:59N 52°24' E 004°47'0 0.0
2018-Jun-20 20:29N 52°24' E 004°47'0 0.0
2018-Jun-20 19:59N 52°24' E 004°47'0 0.0
2018-Jun-20 19:26N 52°24' E 004°47'0 0.0
2018-Jun-20 18:56N 52°24' E 004°47'0 0.0
2018-Jun-20 18:29N 52°24' E 004°47'0 0.0
2018-Jun-20 17:59N 52°24' E 004°47'0 0.0
2018-Jun-20 17:29N 52°24' E 004°47'0 0.0
2018-Jun-20 16:59N 52°24' E 004°47'0 0.0
2018-Jun-20 16:26N 52°24' E 004°47'0 0.0
2018-Jun-20 15:59N 52°24' E 004°47'0 0.0
2018-Jun-20 15:29N 52°24' E 004°47'0 0.0
2018-Jun-20 14:59N 52°24' E 004°47'0 0.0
2018-Jun-20 14:29N 52°24' E 004°47'0 0.0
2018-Jun-20 13:59N 52°24' E 004°47'0 0.0
2018-Jun-20 13:26N 52°24' E 004°47'0 0.0
2018-Jun-20 12:59N 52°24' E 004°47'0 0.0
2018-Jun-20 12:29N 52°24' E 004°47'0 0.0
2018-Jun-20 11:53N 52°24' E 004°47'0 0.0
2018-Jun-20 11:29N 52°24' E 004°47'0 0.0
2018-Jun-20 10:59N 52°24' E 004°47'0 0.1
2018-Jun-20 10:30N 52°24' E 004°47'1 2.8
2018-Jun-20 10:00N 52°25' E 004°46'4 8.9
2018-Jun-20 09:30N 52°28' E 004°40'2 4.1
2018-Jun-20 09:00N 52°28' E 004°36'1 1.6
2018-Jun-20 08:30N 52°28' E 004°35'5 9.3
2018-Jun-20 08:00N 52°28' E 004°28'4 7.0
2018-Jun-20 07:30N 52°28' E 004°22'4 7.3
2018-Jun-20 07:00N 52°29' E 004°16'4 7.4
2018-Jun-20 06:30N 52°29' E 004°10'4 8.4
2018-Jun-20 06:00N 52°28' E 004°03'610.9
2018-Jun-20 05:30N 52°27' E 003°54'510.5
2018-Jun-20 05:00N 52°26' E 003°46'15810.1
2018-Jun-19 13:26N 53°38' W 000°08'614.6
2018-Jun-19 13:00N 53°43' W 000°14'2 4.6
2018-Jun-19 12:31N 53°44' W 000°16'0 0.5
2018-Jun-19 11:58N 53°45' W 000°16'0 0.2
2018-Jun-19 11:28N 53°45' W 000°16'0 0.0
2018-Jun-19 10:58N 53°45' W 000°16'0 0.0
2018-Jun-19 10:28N 53°45' W 000°16'0 0.0
2018-Jun-19 09:58N 53°45' W 000°16'0 0.0
2018-Jun-19 09:28N 53°45' W 000°16'0 0.0
2018-Jun-19 08:58N 53°45' W 000°16'0 0.0
2018-Jun-19 08:28N 53°45' W 000°16'0 0.0
2018-Jun-19 07:58N 53°45' W 000°16'0 0.0
2018-Jun-19 07:28N 53°45' W 000°16'0 0.0
2018-Jun-19 06:58N 53°45' W 000°16'0 0.0
2018-Jun-19 06:28N 53°45' W 000°16'0 0.0
2018-Jun-19 05:58N 53°45' W 000°16'0 0.0
2018-Jun-19 05:28N 53°45' W 000°16'0 0.0
2018-Jun-19 04:58N 53°45' W 000°16'0 0.0
2018-Jun-19 04:22N 53°45' W 000°16'0 0.0
2018-Jun-19 03:58N 53°45' W 000°16'0 0.0
2018-Jun-19 03:28N 53°45' W 000°16'0 0.0
2018-Jun-19 02:58N 53°45' W 000°16'0 0.0
2018-Jun-19 02:28N 53°45' W 000°16'0 0.0
2018-Jun-19 01:58N 53°45' W 000°16'0 0.0
2018-Jun-19 01:28N 53°45' W 000°16'0 0.0
2018-Jun-19 00:58N 53°45' W 000°16'0 0.0
2018-Jun-19 00:28N 53°45' W 000°16'0 0.0
2018-Jun-18 23:58N 53°45' W 000°16'0 0.0
2018-Jun-18 23:28N 53°45' W 000°16'0 0.0
2018-Jun-18 22:58N 53°45' W 000°16'0 0.0
2018-Jun-18 22:28N 53°45' W 000°16'0 0.0
2018-Jun-18 21:58N 53°45' W 000°16'0 0.0
2018-Jun-18 21:28N 53°45' W 000°16'0 0.0
2018-Jun-18 20:58N 53°45' W 000°16'0 0.0
2018-Jun-18 20:28N 53°45' W 000°16'0 0.0
2018-Jun-18 19:58N 53°45' W 000°16'0 0.0
2018-Jun-18 19:28N 53°45' W 000°16'0 0.0
2018-Jun-18 18:58N 53°45' W 000°16'0 0.0
2018-Jun-18 18:28N 53°45' W 000°16'0 0.0
2018-Jun-18 17:58N 53°45' W 000°16'0 0.0
2018-Jun-18 17:28N 53°45' W 000°16'0 0.0
2018-Jun-18 16:58N 53°45' W 000°16'0 0.0
2018-Jun-18 16:28N 53°45' W 000°16'0 0.0
2018-Jun-18 15:58N 53°45' W 000°16'0 0.0
2018-Jun-18 15:28N 53°45' W 000°16'0 0.0
2018-Jun-18 14:58N 53°45' W 000°16'0 0.0
2018-Jun-18 14:28N 53°45' W 000°16'0 0.0
2018-Jun-18 13:58N 53°45' W 000°16'0 0.0
2018-Jun-18 13:28N 53°45' W 000°16'0 0.0
2018-Jun-18 12:55N 53°45' W 000°16'0 0.0
2018-Jun-18 12:28N 53°45' W 000°16'0 0.0
2018-Jun-18 11:58N 53°45' W 000°16'0 0.0
2018-Jun-18 11:25N 53°45' W 000°16'0 0.0
2018-Jun-18 10:58N 53°45' W 000°16'0 0.0
2018-Jun-18 10:28N 53°45' W 000°16'0 0.0
2018-Jun-18 09:58N 53°45' W 000°16'0 0.0
2018-Jun-18 09:28N 53°45' W 000°16'0 0.0
2018-Jun-18 08:58N 53°45' W 000°16'0 0.0
2018-Jun-18 08:28N 53°45' W 000°16'0 0.0
2018-Jun-18 07:58N 53°45' W 000°16'0 0.0
2018-Jun-18 07:28N 53°45' W 000°16'0 0.0
2018-Jun-18 06:58N 53°45' W 000°16'0 0.0
2018-Jun-18 06:28N 53°45' W 000°16'0 0.0
2018-Jun-18 05:58N 53°45' W 000°16'0 0.0
2018-Jun-18 05:28N 53°45' W 000°16'0 0.0
2018-Jun-18 04:58N 53°45' W 000°16'0 0.0
2018-Jun-18 04:28N 53°45' W 000°16'0 0.0
2018-Jun-18 03:58N 53°45' W 000°16'0 0.0
2018-Jun-18 03:28N 53°45' W 000°16'0 0.0
2018-Jun-18 02:58N 53°45' W 000°16'0 0.0
2018-Jun-18 02:28N 53°45' W 000°16'0 0.0
2018-Jun-18 01:58N 53°45' W 000°16'0 0.0
2018-Jun-18 01:28N 53°45' W 000°16'0 0.0
2018-Jun-18 00:58N 53°45' W 000°16'0 0.0
2018-Jun-18 00:28N 53°45' W 000°16'0 0.0
2018-Jun-17 23:58N 53°45' W 000°16'0 0.0
2018-Jun-17 23:31N 53°45' W 000°16'0 0.6
2018-Jun-17 23:00N 53°45' W 000°16'0 0.2
2018-Jun-17 22:30N 53°44' W 000°16'0 0.7
2018-Jun-17 22:00N 53°44' W 000°16'2 4.4
2018-Jun-17 21:30N 53°42' W 000°14'4 7.0
2018-Jun-17 20:59N 53°39' W 000°11'59 6.4
2018-Jun-17 11:43N 53°05' E 001°10'210.0
2018-Jun-17 11:30N 53°04' E 001°13'5 9.6
2018-Jun-17 11:00N 53°02' E 001°20'5 9.2
2018-Jun-17 10:30N 52°59' E 001°26'4 8.6
2018-Jun-17 10:00N 52°56' E 001°32'4 8.5
2018-Jun-17 09:30N 52°53' E 001°37'4 8.5
2018-Jun-17 09:00N 52°50' E 001°42'4 8.6
2018-Jun-17 08:30N 52°47' E 001°47'3610.8
2018-Jun-17 05:08N 52°11' E 001°54'213.6
2018-Jun-17 05:00N 52°10' E 001°54'713.9
2018-Jun-17 04:31N 52°03' E 001°52'713.9
2018-Jun-17 04:00N 51°56' E 001°49'612.9
2018-Jun-17 03:30N 51°50' E 001°49'712.5
2018-Jun-17 02:57N 51°43' E 001°50'512.1
2018-Jun-17 02:30N 51°38' E 001°49'612.5
2018-Jun-17 02:00N 51°32' E 001°47'612.7
2018-Jun-17 01:30N 51°25' E 001°45'612.7
2018-Jun-17 01:00N 51°19' E 001°43'612.2
2018-Jun-17 00:30N 51°13' E 001°39'5 9.5
2018-Jun-17 00:00N 51°09' E 001°42'18311.1
2018-Jun-16 07:37N 49°52' W 002°38'  

Dump ship's entire track history